Time;durP1;ratioP1;P1;durP2;ratioP2;P2;SDS_P1;SDS_P2;PMS_P1;PMS_P2;Temp;Humidity;BMP_temperature;BMP_pressure;BME280_temperature;BME280_humidity;BME280_pressure;Samples;Min_cycle;Max_cycle;Signal;HPM_P1;HPM_P2
2023/08/12 00:00:11;;;;;;;16.95;11.80;;;;;;;;;;5151058;27;20027;-78
2023/08/12 00:02:39;;;;;;;21.60;13.07;;;;;;;;;;5151316;27;20039;-78
2023/08/12 00:05:05;;;;;;;17.58;12.80;;;;;;;;;;5149968;27;20019;-78
2023/08/12 00:07:32;;;;;;;22.15;12.20;;;;;;;;;;5151171;27;20130;-78
2023/08/12 00:09:58;;;;;;;13.55;9.07;;;;;;;;;;5151221;27;20118;-77
2023/08/12 00:12:24;;;;;;;14.57;8.65;;;;;;;;;;5150644;27;20097;-78
2023/08/12 00:14:50;;;;;;;12.77;8.20;;;;;;;;;;5154920;27;20047;-78
2023/08/12 00:17:16;;;;;;;12.68;8.88;;;;;;;;;;5151562;27;20046;-79
2023/08/12 00:19:42;;;;;;;12.65;9.18;;;;;;;;;;5151233;27;20043;-79
2023/08/12 00:22:08;;;;;;;14.65;9.70;;;;;;;;;;5150918;27;20066;-78
2023/08/12 00:24:34;;;;;;;16.20;11.95;;;;;;;;;;5151209;27;20073;-78
2023/08/12 00:27:00;;;;;;;19.25;11.57;;;;;;;;;;5150759;27;20026;-78
2023/08/12 00:29:26;;;;;;;17.38;10.38;;;;;;;;;;5149257;27;20018;-78
2023/08/12 00:31:52;;;;;;;15.52;9.80;;;;;;;;;;5151351;27;20026;-78
2023/08/12 00:34:18;;;;;;;15.65;10.57;;;;;;;;;;5150322;27;20047;-80
2023/08/12 00:36:44;;;;;;;19.92;11.65;;;;;;;;;;5150716;27;20026;-80
2023/08/12 00:39:10;;;;;;;15.60;10.57;;;;;;;;;;5151105;27;20058;-79
2023/08/12 00:41:36;;;;;;;13.95;9.30;;;;;;;;;;5150950;27;20419;-79
2023/08/12 00:44:02;;;;;;;12.57;8.68;;;;;;;;;;5150436;27;20018;-78
2023/08/12 00:46:28;;;;;;;13.20;7.30;;;;;;;;;;5150920;27;20023;-79
2023/08/12 00:48:55;;;;;;;10.40;6.05;;;;;;;;;;5150598;27;20027;-78
2023/08/12 00:51:21;;;;;;;15.88;8.93;;;;;;;;;;5150717;27;20023;-80
2023/08/12 00:53:47;;;;;;;13.80;8.35;;;;;;;;;;5150148;27;20023;-78
2023/08/12 00:56:13;;;;;;;15.18;9.18;;;;;;;;;;5150516;27;20022;-80
2023/08/12 00:58:40;;;;;;;15.68;10.43;;;;;;;;;;5150888;27;20088;-79
2023/08/12 01:01:06;;;;;;;22.10;11.27;;;;;;;;;;5150442;27;20046;-79
2023/08/12 01:03:32;;;;;;;15.80;10.52;;;;;;;;;;5152867;27;20138;-78
2023/08/12 01:05:58;;;;;;;14.65;8.90;;;;;;;;;;5150622;27;20102;-78
2023/08/12 01:08:29;;;;;;;15.70;9.30;;;;;;;;;;5149809;27;20102;-77
2023/08/12 01:10:59;;;;;;;13.38;8.45;;;;;;;;;;5149473;27;20426;-78
2023/08/12 01:13:38;;;;;;;16.88;10.38;;;;;;;;;;5150678;27;20058;-79
2023/08/12 01:16:05;;;;;;;16.50;10.70;;;;;;;;;;5150326;27;20423;-78
2023/08/12 01:18:32;;;;;;;13.73;9.95;;;;;;;;;;5149928;27;20037;-78
2023/08/12 01:20:59;;;;;;;14.63;9.57;;;;;;;;;;5150564;27;20056;-78
2023/08/12 01:23:25;;;;;;;11.98;7.93;;;;;;;;;;5150185;27;20038;-78
2023/08/12 01:25:51;;;;;;;12.90;8.15;;;;;;;;;;5150222;27;20027;-79
2023/08/12 01:28:17;;;;;;;13.18;9.52;;;;;;;;;;5150461;27;20046;-79
2023/08/12 01:30:57;;;;;;;14.60;8.02;;;;;;;;;;5150548;27;20027;-78
2023/08/12 01:33:35;;;;;;;12.80;8.32;;;;;;;;;;5150508;27;20503;-80
2023/08/12 01:36:07;;;;;;;17.17;9.60;;;;;;;;;;5149761;27;20019;-80
2023/08/12 01:38:34;;;;;;;10.20;6.50;;;;;;;;;;5149649;27;20050;-79
2023/08/12 01:41:00;;;;;;;13.77;8.55;;;;;;;;;;5151452;27;20050;-79
2023/08/12 01:43:26;;;;;;;14.75;9.45;;;;;;;;;;5154032;27;20018;-79
2023/08/12 01:45:53;;;;;;;19.52;11.02;;;;;;;;;;5154115;27;20015;-79
2023/08/12 01:48:22;;;;;;;18.48;11.48;;;;;;;;;;5154723;27;20094;-78
2023/08/12 01:50:48;;;;;;;21.58;12.60;;;;;;;;;;5155747;27;20034;-79
2023/08/12 01:53:14;;;;;;;16.48;10.93;;;;;;;;;;5156091;27;20590;-79
2023/08/12 01:55:43;;;;;;;15.38;10.48;;;;;;;;;;5155978;27;20023;-79
2023/08/12 01:58:09;;;;;;;15.77;10.55;;;;;;;;;;5155130;27;20460;-79
2023/08/12 02:00:35;;;;;;;13.32;8.93;;;;;;;;;;5155366;27;20026;-80
2023/08/12 02:03:01;;;;;;;13.65;9.68;;;;;;;;;;5153639;27;20031;-78
2023/08/12 02:05:27;;;;;;;17.75;12.90;;;;;;;;;;5154540;27;20524;-79
2023/08/12 02:07:53;;;;;;;14.60;10.18;;;;;;;;;;5153833;27;20114;-79
2023/08/12 02:10:19;;;;;;;16.48;11.70;;;;;;;;;;5153765;27;20106;-79
2023/08/12 02:12:45;;;;;;;17.92;12.35;;;;;;;;;;5153747;27;20042;-78
2023/08/12 02:15:11;;;;;;;18.13;11.82;;;;;;;;;;5153887;27;20030;-80
2023/08/12 02:17:37;;;;;;;20.63;14.60;;;;;;;;;;5153253;27;20027;-79
2023/08/12 02:20:04;;;;;;;26.10;15.73;;;;;;;;;;5153228;27;20484;-79
2023/08/12 02:22:30;;;;;;;16.23;13.10;;;;;;;;;;5152860;27;20038;-78
2023/08/12 02:24:56;;;;;;;18.77;13.05;;;;;;;;;;5153218;27;20029;-80
2023/08/12 02:27:22;;;;;;;18.60;12.93;;;;;;;;;;5153512;27;20019;-79
2023/08/12 02:29:48;;;;;;;12.48;8.63;;;;;;;;;;5153403;27;20536;-79
2023/08/12 02:32:14;;;;;;;22.15;15.38;;;;;;;;;;5151597;27;20030;-79
2023/08/12 02:34:40;;;;;;;21.83;15.82;;;;;;;;;;5153325;27;20031;-79
2023/08/12 02:37:06;;;;;;;22.17;16.85;;;;;;;;;;5153367;27;20026;-80
2023/08/12 02:39:32;;;;;;;22.92;17.20;;;;;;;;;;5156375;27;20122;-79
2023/08/12 02:41:58;;;;;;;20.50;15.18;;;;;;;;;;5153184;27;20066;-81
2023/08/12 02:44:24;;;;;;;21.63;16.23;;;;;;;;;;5153005;27;20030;-78
2023/08/12 02:46:50;;;;;;;29.92;20.27;;;;;;;;;;5153017;27;20029;-78
2023/08/12 02:49:16;;;;;;;28.60;20.02;;;;;;;;;;5152986;27;20026;-79
2023/08/12 02:51:41;;;;;;;21.17;15.57;;;;;;;;;;5152059;27;20361;-80
2023/08/12 02:54:07;;;;;;;19.95;14.40;;;;;;;;;;5152942;27;20073;-78
2023/08/12 02:56:33;;;;;;;13.88;10.77;;;;;;;;;;5153864;27;20034;-79
2023/08/12 02:58:59;;;;;;;23.42;17.30;;;;;;;;;;5153449;27;20022;-79
2023/08/12 03:01:27;;;;;;;22.80;16.85;;;;;;;;;;5152851;27;20039;-79
2023/08/12 03:03:53;;;;;;;21.67;16.63;;;;;;;;;;5152720;27;20022;-80
2023/08/12 03:06:19;;;;;;;22.73;16.95;;;;;;;;;;5152522;27;20018;-79
2023/08/12 03:08:45;;;;;;;32.88;21.30;;;;;;;;;;5152699;27;20019;-79
2023/08/12 03:11:11;;;;;;;19.83;13.50;;;;;;;;;;5152638;27;20495;-77
2023/08/12 03:13:37;;;;;;;23.42;16.95;;;;;;;;;;5152668;27;20031;-80
2023/08/12 03:16:03;;;;;;;23.38;17.98;;;;;;;;;;5152276;27;20095;-78
2023/08/12 03:18:29;;;;;;;25.17;18.55;;;;;;;;;;5151569;27;20018;-79
2023/08/12 03:20:55;;;;;;;19.10;13.95;;;;;;;;;;5152518;27;20040;-79
2023/08/12 03:23:21;;;;;;;19.13;14.48;;;;;;;;;;5151621;27;20476;-78
2023/08/12 03:25:48;;;;;;;18.70;14.07;;;;;;;;;;5152619;27;20479;-79
2023/08/12 03:28:14;;;;;;;13.32;9.48;;;;;;;;;;5155097;27;20027;-77
2023/08/12 03:30:40;;;;;;;23.48;20.15;;;;;;;;;;5152513;27;20027;-79
2023/08/12 03:33:06;;;;;;;21.35;15.35;;;;;;;;;;5151213;27;20050;-79
2023/08/12 03:35:32;;;;;;;19.23;13.95;;;;;;;;;;5152191;27;20054;-79
2023/08/12 03:37:58;;;;;;;18.75;14.23;;;;;;;;;;5151942;27;20075;-79
2023/08/12 03:40:24;;;;;;;30.00;18.02;;;;;;;;;;5151958;27;20049;-79
2023/08/12 03:42:50;;;;;;;32.55;23.02;;;;;;;;;;5150264;27;20137;-78
2023/08/12 03:45:16;;;;;;;21.98;15.52;;;;;;;;;;5151539;27;20106;-78
2023/08/12 03:47:42;;;;;;;27.45;21.35;;;;;;;;;;5151273;27;20027;-79
2023/08/12 03:50:08;;;;;;;20.25;15.40;;;;;;;;;;5151627;27;20052;-78
2023/08/12 03:52:34;;;;;;;24.88;17.33;;;;;;;;;;5151680;27;20249;-79
2023/08/12 03:55:00;;;;;;;23.63;18.42;;;;;;;;;;5151192;27;20034;-79
2023/08/12 03:57:26;;;;;;;23.08;17.20;;;;;;;;;;5151781;27;20477;-79
2023/08/12 03:59:52;;;;;;;24.60;18.95;;;;;;;;;;5151331;27;20103;-78
2023/08/12 04:02:18;;;;;;;26.85;17.30;;;;;;;;;;5151487;27;20569;-78
2023/08/12 04:04:44;;;;;;;19.70;15.30;;;;;;;;;;5150178;27;20053;-79
2023/08/12 04:07:10;;;;;;;21.35;13.73;;;;;;;;;;5151115;27;20476;-79
2023/08/12 04:09:36;;;;;;;19.63;14.50;;;;;;;;;;5151434;27;20442;-79
2023/08/12 04:12:02;;;;;;;27.67;19.77;;;;;;;;;;5151545;27;20022;-79
2023/08/12 04:14:28;;;;;;;18.85;14.20;;;;;;;;;;5151988;27;20476;-79
2023/08/12 04:16:54;;;;;;;21.30;16.25;;;;;;;;;;5154103;27;20022;-79
2023/08/12 04:19:20;;;;;;;20.75;15.48;;;;;;;;;;5151395;27;20533;-79
2023/08/12 04:21:46;;;;;;;22.27;14.35;;;;;;;;;;5150983;27;20115;-80
2023/08/12 04:24:13;;;;;;;16.70;12.20;;;;;;;;;;5150871;27;20469;-78
2023/08/12 04:26:39;;;;;;;13.88;11.15;;;;;;;;;;5150772;27;20425;-79
2023/08/12 04:29:05;;;;;;;23.77;18.25;;;;;;;;;;5150522;27;20097;-80
2023/08/12 04:31:31;;;;;;;25.95;21.17;;;;;;;;;;5151057;27;20110;-80
2023/08/12 04:33:57;;;;;;;20.85;15.13;;;;;;;;;;5151015;27;20019;-79
2023/08/12 04:36:23;;;;;;;20.58;17.17;;;;;;;;;;5151193;27;20034;-78
2023/08/12 04:38:49;;;;;;;15.15;12.60;;;;;;;;;;5151080;27;20023;-79
2023/08/12 04:41:15;;;;;;;18.58;14.95;;;;;;;;;;5150138;27;20054;-79
2023/08/12 04:43:41;;;;;;;15.82;12.70;;;;;;;;;;5149586;27;20087;-80
2023/08/12 04:46:08;;;;;;;27.48;20.17;;;;;;;;;;5150430;27;20033;-78
2023/08/12 04:48:34;;;;;;;17.83;13.63;;;;;;;;;;5151030;27;20047;-79
2023/08/12 04:51:01;;;;;;;18.17;12.35;;;;;;;;;;5151000;27;20019;-78
2023/08/12 04:53:27;;;;;;;23.92;18.38;;;;;;;;;;5151302;27;20026;-79
2023/08/12 04:55:54;;;;;;;19.48;15.45;;;;;;;;;;5149364;27;20521;-80
2023/08/12 04:58:20;;;;;;;21.40;15.98;;;;;;;;;;5150392;27;20035;-79
2023/08/12 05:00:47;;;;;;;34.55;25.92;;;;;;;;;;5150381;27;20718;-78
2023/08/12 05:03:13;;;;;;;13.15;9.88;;;;;;;;;;5152384;27;20026;-79
2023/08/12 05:05:39;;;;;;;15.90;11.00;;;;;;;;;;5153357;27;20019;-79
2023/08/12 05:08:05;;;;;;;20.00;13.88;;;;;;;;;;5149720;27;20030;-78
2023/08/12 05:10:31;;;;;;;19.30;15.23;;;;;;;;;;5150761;27;20099;-79
2023/08/12 05:12:58;;;;;;;29.27;22.48;;;;;;;;;;5150620;27;20031;-79
2023/08/12 05:15:24;;;;;;;32.13;24.52;;;;;;;;;;5151247;27;20030;-78
2023/08/12 05:17:50;;;;;;;29.08;23.17;;;;;;;;;;5155274;27;20026;-78
2023/08/12 05:20:16;;;;;;;20.02;14.30;;;;;;;;;;5154502;27;20034;-79
2023/08/12 05:22:42;;;;;;;14.45;11.90;;;;;;;;;;5154239;27;20035;-78
2023/08/12 05:25:08;;;;;;;12.60;10.60;;;;;;;;;;5154735;27;20023;-77
2023/08/12 05:27:34;;;;;;;14.63;10.32;;;;;;;;;;5155033;27;20030;-78
2023/08/12 05:30:00;;;;;;;20.58;17.50;;;;;;;;;;5152800;27;20448;-78
2023/08/12 05:32:26;;;;;;;23.75;18.25;;;;;;;;;;5153891;27;20071;-78
2023/08/12 05:34:55;;;;;;;22.75;16.67;;;;;;;;;;5154603;27;20023;-78
2023/08/12 05:37:21;;;;;;;19.33;13.80;;;;;;;;;;5154240;27;20023;-79
2023/08/12 05:39:48;;;;;;;17.95;12.77;;;;;;;;;;5153780;27;20050;-80
2023/08/12 05:42:13;;;;;;;18.40;14.95;;;;;;;;;;5153462;27;20045;-78
2023/08/12 05:44:42;;;;;;;24.58;19.13;;;;;;;;;;5153706;27;20027;-80
2023/08/12 05:47:08;;;;;;;18.05;13.43;;;;;;;;;;5154277;27;20034;-78
2023/08/12 05:49:33;;;;;;;29.67;21.70;;;;;;;;;;5153600;27;20019;-78
2023/08/12 05:52:00;;;;;;;16.67;12.60;;;;;;;;;;5154778;27;20030;-77
2023/08/12 05:54:26;;;;;;;20.13;15.75;;;;;;;;;;5152542;27;20023;-76
2023/08/12 05:56:52;;;;;;;28.42;20.65;;;;;;;;;;5153577;27;20023;-77
2023/08/12 05:59:18;;;;;;;38.78;24.10;;;;;;;;;;5153872;27;20033;-76
2023/08/12 06:01:44;;;;;;;24.77;17.70;;;;;;;;;;5154067;27;20102;-75
2023/08/12 06:04:10;;;;;;;21.98;16.67;;;;;;;;;;5153855;27;20027;-76
2023/08/12 06:06:36;;;;;;;22.52;17.38;;;;;;;;;;5152949;27;20030;-77
2023/08/12 06:09:02;;;;;;;11.80;7.88;;;;;;;;;;5153529;27;20027;-77
2023/08/12 06:11:28;;;;;;;16.88;11.70;;;;;;;;;;5153545;27;20027;-76
2023/08/12 06:13:54;;;;;;;13.32;6.45;;;;;;;;;;5153776;27;20460;-78
2023/08/12 06:16:20;;;;;;;27.17;18.20;;;;;;;;;;5153513;27;20034;-76
2023/08/12 06:18:46;;;;;;;14.63;8.38;;;;;;;;;;5153735;27;20026;-78
2023/08/12 06:21:12;;;;;;;13.75;9.93;;;;;;;;;;5153224;27;20433;-77
2023/08/12 06:23:38;;;;;;;18.88;13.02;;;;;;;;;;5153094;27;20027;-77
2023/08/12 06:26:04;;;;;;;10.80;7.15;;;;;;;;;;5152937;27;20042;-78
2023/08/12 06:28:30;;;;;;;13.88;9.50;;;;;;;;;;5152567;27;20123;-78
2023/08/12 06:30:56;;;;;;;20.30;15.48;;;;;;;;;;5152990;27;20019;-75
2023/08/12 06:33:22;;;;;;;18.85;12.75;;;;;;;;;;5151139;27;20071;-77
2023/08/12 06:35:48;;;;;;;17.55;12.13;;;;;;;;;;5152976;27;20503;-77
2023/08/12 06:38:14;;;;;;;13.70;9.63;;;;;;;;;;5151745;27;20049;-79
2023/08/12 06:40:40;;;;;;;18.13;12.52;;;;;;;;;;5155108;27;20043;-75
2023/08/12 06:43:07;;;;;;;13.00;7.88;;;;;;;;;;5153603;27;20061;-77
2023/08/12 06:45:33;;;;;;;14.25;9.13;;;;;;;;;;5152754;27;20023;-74
2023/08/12 06:47:59;;;;;;;13.45;8.10;;;;;;;;;;5153381;27;20392;-78
2023/08/12 06:50:25;;;;;;;14.90;8.73;;;;;;;;;;5152923;27;20133;-78
2023/08/12 06:52:51;;;;;;;11.32;7.40;;;;;;;;;;5153176;27;20121;-77
2023/08/12 06:55:17;;;;;;;14.77;7.88;;;;;;;;;;5153066;27;20030;-78
2023/08/12 06:57:44;;;;;;;9.82;6.47;;;;;;;;;;5153205;27;20033;-80
2023/08/12 07:00:10;;;;;;;12.93;8.48;;;;;;;;;;5152467;27;20027;-79
2023/08/12 07:02:36;;;;;;;12.52;8.35;;;;;;;;;;5152841;27;20037;-80
2023/08/12 07:05:02;;;;;;;14.25;9.50;;;;;;;;;;5152939;27;20098;-79
2023/08/12 07:07:28;;;;;;;16.08;9.95;;;;;;;;;;5152931;27;20556;-78
2023/08/12 07:09:54;;;;;;;12.88;8.15;;;;;;;;;;5152596;27;20102;-79
2023/08/12 07:12:20;;;;;;;16.83;9.85;;;;;;;;;;5152818;27;20361;-78
2023/08/12 07:14:46;;;;;;;15.07;9.38;;;;;;;;;;5152218;27;20023;-78
2023/08/12 07:17:12;;;;;;;14.00;9.90;;;;;;;;;;5152629;27;20029;-78
2023/08/12 07:19:38;;;;;;;15.70;9.73;;;;;;;;;;5152880;27;20113;-78
2023/08/12 07:22:04;;;;;;;22.95;11.32;;;;;;;;;;5152266;27;20026;-78
2023/08/12 07:24:30;;;;;;;14.00;9.95;;;;;;;;;;5152218;27;20380;-79
2023/08/12 07:26:56;;;;;;;17.13;10.77;;;;;;;;;;5152839;27;20023;-82
2023/08/12 07:29:22;;;;;;;16.58;9.10;;;;;;;;;;5157011;27;20095;-81
2023/08/12 07:31:48;;;;;;;14.45;8.70;;;;;;;;;;5159781;27;20130;-82
2023/08/12 07:34:14;;;;;;;11.80;7.10;;;;;;;;;;5163568;27;20026;-81
2023/08/12 07:36:41;;;;;;;13.32;7.65;;;;;;;;;;5157550;27;20561;-82
2023/08/12 07:39:07;;;;;;;11.95;6.63;;;;;;;;;;5154572;27;20026;-80
2023/08/12 07:41:33;;;;;;;9.20;6.05;;;;;;;;;;5145307;27;20042;-80
2023/08/12 07:43:59;;;;;;;8.82;5.65;;;;;;;;;;5140820;27;20027;-81
2023/08/12 07:46:29;;;;;;;10.70;8.27;;;;;;;;;;5139680;27;20039;-81
2023/08/12 07:48:55;;;;;;;8.52;4.65;;;;;;;;;;5152848;27;20122;-82
2023/08/12 07:51:21;;;;;;;13.85;7.75;;;;;;;;;;5153054;27;20734;-81
2023/08/12 07:53:47;;;;;;;15.82;10.65;;;;;;;;;;5151389;27;20065;-80
2023/08/12 07:56:14;;;;;;;11.02;6.03;;;;;;;;;;5153191;27;20121;-81
2023/08/12 07:58:40;;;;;;;11.07;6.75;;;;;;;;;;5153267;27;20065;-78
2023/08/12 08:01:08;;;;;;;11.65;6.15;;;;;;;;;;5151895;27;20054;-77
2023/08/12 08:03:33;;;;;;;7.93;4.93;;;;;;;;;;5151754;27;20148;-77
2023/08/12 08:05:59;;;;;;;9.60;6.07;;;;;;;;;;5151311;27;20175;-80
2023/08/12 08:08:25;;;;;;;7.90;4.10;;;;;;;;;;5151974;27;20031;-78
2023/08/12 08:10:51;;;;;;;8.55;4.82;;;;;;;;;;5152092;27;20061;-77
2023/08/12 08:13:17;;;;;;;7.93;5.95;;;;;;;;;;5150093;27;20031;-78
2023/08/12 08:15:43;;;;;;;5.40;3.80;;;;;;;;;;5151508;27;20025;-78
2023/08/12 08:18:09;;;;;;;10.23;5.03;;;;;;;;;;5152000;27;20023;-77
2023/08/12 08:20:35;;;;;;;6.85;3.67;;;;;;;;;;5149815;27;20030;-76
2023/08/12 08:23:01;;;;;;;7.50;3.40;;;;;;;;;;5150623;27;20427;-77
2023/08/12 08:25:27;;;;;;;8.60;4.15;;;;;;;;;;5150544;27;20022;-79
2023/08/12 08:27:54;;;;;;;7.68;3.97;;;;;;;;;;5151206;27;20545;-78
2023/08/12 08:30:19;;;;;;;6.30;4.00;;;;;;;;;;5150659;27;20019;-76
2023/08/12 08:32:46;;;;;;;6.15;3.40;;;;;;;;;;5139170;27;20026;-75
2023/08/12 08:35:12;;;;;;;5.78;3.00;;;;;;;;;;5143639;27;20109;-77
2023/08/12 08:37:38;;;;;;;8.40;2.75;;;;;;;;;;5146516;27;20030;-78
2023/08/12 08:40:05;;;;;;;7.43;3.95;;;;;;;;;;5151053;27;20039;-77
2023/08/12 08:42:31;;;;;;;6.10;3.10;;;;;;;;;;5151192;27;20038;-81
2023/08/12 08:44:59;;;;;;;5.88;3.35;;;;;;;;;;5150496;27;20034;-78
2023/08/12 08:47:26;;;;;;;7.20;2.72;;;;;;;;;;5151166;27;20037;-79
2023/08/12 08:49:54;;;;;;;3.67;2.28;;;;;;;;;;5150465;27;20026;-78
2023/08/12 08:52:20;;;;;;;5.50;2.83;;;;;;;;;;5150872;27;20468;-77
2023/08/12 08:54:46;;;;;;;4.18;2.47;;;;;;;;;;5149408;27;20026;-76
2023/08/12 08:57:12;;;;;;;6.38;4.55;;;;;;;;;;5151072;27;20465;-78
2023/08/12 08:59:38;;;;;;;6.95;4.07;;;;;;;;;;5150468;27;20113;-78
2023/08/12 09:02:05;;;;;;;4.38;2.50;;;;;;;;;;5150912;27;20031;-80
2023/08/12 09:04:31;;;;;;;9.88;5.32;;;;;;;;;;5151381;27;20027;-75
2023/08/12 09:06:58;;;;;;;6.15;3.53;;;;;;;;;;5150350;27;20105;-74
2023/08/12 09:09:25;;;;;;;5.88;3.40;;;;;;;;;;5150712;27;20027;-76
2023/08/12 09:11:52;;;;;;;5.45;3.67;;;;;;;;;;5150445;27;20023;-76
2023/08/12 09:14:18;;;;;;;5.53;4.43;;;;;;;;;;5150379;27;20027;-76
2023/08/12 09:16:44;;;;;;;6.82;4.57;;;;;;;;;;5150009;27;20030;-76
2023/08/12 09:19:10;;;;;;;6.63;4.80;;;;;;;;;;5150934;27;20027;-77
2023/08/12 09:21:36;;;;;;;5.85;3.60;;;;;;;;;;5149054;27;20026;-75
2023/08/12 09:24:05;;;;;;;4.88;3.60;;;;;;;;;;5150279;27;20054;-77
2023/08/12 09:26:31;;;;;;;5.60;3.80;;;;;;;;;;5150488;27;20463;-76
2023/08/12 09:28:59;;;;;;;4.50;3.33;;;;;;;;;;5151346;27;20023;-77
2023/08/12 09:31:26;;;;;;;5.35;3.45;;;;;;;;;;5151817;27;20087;-76
2023/08/12 09:33:52;;;;;;;4.70;2.30;;;;;;;;;;5150336;27;20532;-76
2023/08/12 09:36:19;;;;;;;3.00;1.85;;;;;;;;;;5150296;27;20068;-75
2023/08/12 09:38:45;;;;;;;2.67;1.30;;;;;;;;;;5148932;27;20396;-76
2023/08/12 09:41:11;;;;;;;2.83;1.77;;;;;;;;;;5149760;27;20043;-78
2023/08/12 09:43:43;;;;;;;2.90;1.40;;;;;;;;;;5150347;27;20391;-75
2023/08/12 09:46:16;;;;;;;2.45;1.55;;;;;;;;;;5150249;27;20027;-77
2023/08/12 09:48:49;;;;;;;5.05;1.80;;;;;;;;;;5150437;27;20019;-76
2023/08/12 09:51:16;;;;;;;1.90;0.90;;;;;;;;;;5150539;27;20027;-77
2023/08/12 09:53:42;;;;;;;2.10;0.93;;;;;;;;;;5153693;27;20023;-77
2023/08/12 09:56:10;;;;;;;5.88;1.17;;;;;;;;;;5150641;27;20022;-77
2023/08/12 09:58:37;;;;;;;3.97;1.05;;;;;;;;;;5150650;27;20373;-76
2023/08/12 10:01:07;;;;;;;0.80;0.70;;;;;;;;;;5150565;27;20036;-74
2023/08/12 10:03:35;;;;;;;2.45;0.98;;;;;;;;;;5154017;27;20019;-75
2023/08/12 10:06:03;;;;;;;6.45;1.95;;;;;;;;;;5153458;27;20011;-76
2023/08/12 10:08:29;;;;;;;3.53;1.10;;;;;;;;;;5153927;27;20114;-76
2023/08/12 10:10:55;;;;;;;2.58;0.85;;;;;;;;;;5153857;27;20493;-75
2023/08/12 10:13:22;;;;;;;1.52;0.60;;;;;;;;;;5153859;27;20031;-74
2023/08/12 10:15:48;;;;;;;1.60;1.00;;;;;;;;;;5152777;27;20022;-75
2023/08/12 10:18:15;;;;;;;1.52;0.90;;;;;;;;;;5153180;27;20161;-75
2023/08/12 10:20:41;;;;;;;1.27;0.80;;;;;;;;;;5151901;27;20018;-76
2023/08/12 10:23:08;;;;;;;1.10;0.70;;;;;;;;;;5153586;27;20031;-75
2023/08/12 10:25:34;;;;;;;3.65;1.00;;;;;;;;;;5153171;27;20054;-75
2023/08/12 10:28:01;;;;;;;1.42;0.75;;;;;;;;;;5150987;27;20080;-74
2023/08/12 10:30:34;;;;;;;1.55;1.00;;;;;;;;;;5152552;27;20461;-74
2023/08/12 10:33:00;;;;;;;1.20;0.75;;;;;;;;;;5152912;27;20026;-76
2023/08/12 10:35:45;;;;;;;1.63;0.88;;;;;;;;;;5153168;27;20027;-74
2023/08/12 10:38:12;;;;;;;2.03;1.10;;;;;;;;;;5152625;27;20027;-75
2023/08/12 10:40:38;;;;;;;2.67;1.15;;;;;;;;;;5151483;27;20074;-77
2023/08/12 10:43:05;;;;;;;2.78;1.38;;;;;;;;;;5153966;27;20473;-75
2023/08/12 10:45:50;;;;;;;4.32;1.70;;;;;;;;;;5152595;27;20046;-78
2023/08/12 10:48:16;;;;;;;4.53;1.73;;;;;;;;;;5152580;27;20026;-78
2023/08/12 10:50:46;;;;;;;4.68;1.90;;;;;;;;;;5152916;27;20029;-76
2023/08/12 10:53:29;;;;;;;2.60;1.40;;;;;;;;;;5153200;27;20099;-75
2023/08/12 10:55:59;;;;;;;5.97;2.35;;;;;;;;;;5153243;27;20149;-76
2023/08/12 10:58:34;;;;;;;4.28;1.55;;;;;;;;;;5153344;27;20053;-78
2023/08/12 11:01:01;;;;;;;5.53;2.10;;;;;;;;;;5152060;27;20018;-77
2023/08/12 11:03:32;;;;;;;3.13;1.15;;;;;;;;;;5152883;27;20034;-77
2023/08/12 11:05:59;;;;;;;3.88;1.52;;;;;;;;;;5152240;27;20052;-77
2023/08/12 11:08:27;;;;;;;3.83;1.40;;;;;;;;;;5152700;27;20051;-76
2023/08/12 11:10:55;;;;;;;3.00;1.15;;;;;;;;;;5151679;27;20468;-77
2023/08/12 11:13:21;;;;;;;3.20;1.30;;;;;;;;;;5152493;27;20456;-77
2023/08/12 11:15:49;;;;;;;5.15;1.10;;;;;;;;;;5153064;27;20092;-76
2023/08/12 11:18:20;;;;;;;2.85;1.08;;;;;;;;;;5152553;27;20023;-77
2023/08/12 11:20:47;;;;;;;4.88;1.30;;;;;;;;;;5152278;27;20050;-79
2023/08/12 11:23:13;;;;;;;4.85;1.00;;;;;;;;;;5152830;27;20529;-77
2023/08/12 11:25:40;;;;;;;6.38;1.73;;;;;;;;;;5153391;27;20388;-76
2023/08/12 11:28:07;;;;;;;4.20;1.42;;;;;;;;;;5153801;27;20019;-78
2023/08/12 11:30:33;;;;;;;5.97;1.88;;;;;;;;;;5153492;27;20464;-78
2023/08/12 11:33:01;;;;;;;5.85;1.30;;;;;;;;;;5152321;27;20027;-77
2023/08/12 11:35:27;;;;;;;4.20;1.35;;;;;;;;;;5152253;27;20018;-76
2023/08/12 11:37:58;;;;;;;4.40;1.10;;;;;;;;;;5152304;27;20043;-77
2023/08/12 11:40:25;;;;;;;4.32;1.35;;;;;;;;;;5151732;27;20050;-75
2023/08/12 11:42:52;;;;;;;7.78;1.65;;;;;;;;;;5151994;27;20026;-78
2023/08/12 11:45:19;;;;;;;5.35;1.45;;;;;;;;;;5152011;27;20408;-77
2023/08/12 11:47:52;;;;;;;7.75;2.22;;;;;;;;;;5152435;27;20102;-78
2023/08/12 11:50:18;;;;;;;4.88;1.67;;;;;;;;;;5152746;27;20087;-76
2023/08/12 11:52:44;;;;;;;5.75;1.60;;;;;;;;;;5151720;27;20023;-75
2023/08/12 11:55:10;;;;;;;5.78;1.65;;;;;;;;;;5151730;27;20142;-78
2023/08/12 11:57:37;;;;;;;6.63;1.95;;;;;;;;;;5151801;27;20396;-77
2023/08/12 12:00:13;;;;;;;5.13;1.85;;;;;;;;;;5150067;27;20026;-78
2023/08/12 12:02:50;;;;;;;5.57;1.90;;;;;;;;;;5151635;27;20389;-77
2023/08/12 12:05:17;;;;;;;5.88;1.98;;;;;;;;;;5151764;27;20365;-78
2023/08/12 12:07:46;;;;;;;6.20;1.55;;;;;;;;;;5151891;27;20106;-74
2023/08/12 12:10:18;;;;;;;5.03;1.80;;;;;;;;;;5150997;27;20742;-77
2023/08/12 12:12:45;;;;;;;4.43;1.33;;;;;;;;;;5150001;27;20097;-76
2023/08/12 12:15:13;;;;;;;7.70;2.42;;;;;;;;;;5155307;27;20119;-78
2023/08/12 12:17:40;;;;;;;5.88;1.98;;;;;;;;;;5154947;27;20102;-77
2023/08/12 12:20:08;;;;;;;4.43;1.60;;;;;;;;;;5150144;27;20050;-77
2023/08/12 12:22:34;;;;;;;6.50;1.70;;;;;;;;;;5151025;27;20084;-76
2023/08/12 12:25:07;;;;;;;5.97;1.85;;;;;;;;;;5150982;27;20050;-77
2023/08/12 12:27:33;;;;;;;6.03;1.73;;;;;;;;;;5151868;27;20097;-78
2023/08/12 12:30:02;;;;;;;7.65;1.88;;;;;;;;;;5152687;27;20026;-76
2023/08/12 12:32:29;;;;;;;8.07;2.03;;;;;;;;;;5153238;27;20027;-79
2023/08/12 12:34:55;;;;;;;4.65;1.40;;;;;;;;;;5155137;27;20022;-77
2023/08/12 12:37:21;;;;;;;6.40;1.50;;;;;;;;;;5151748;27;20026;-77
2023/08/12 12:39:47;;;;;;;7.95;1.88;;;;;;;;;;5152734;27;20022;-78
2023/08/12 12:42:13;;;;;;;5.18;1.63;;;;;;;;;;5152272;27;20035;-77
2023/08/12 12:44:39;;;;;;;7.93;2.00;;;;;;;;;;5152660;27;20027;-78
2023/08/12 12:47:06;;;;;;;8.57;2.55;;;;;;;;;;5151709;27;20090;-77
2023/08/12 12:49:32;;;;;;;6.97;1.83;;;;;;;;;;5151498;27;20023;-76
2023/08/12 12:51:58;;;;;;;5.32;1.50;;;;;;;;;;5151191;27;20050;-78
2023/08/12 12:54:24;;;;;;;5.55;1.60;;;;;;;;;;5150760;27;20030;-77
2023/08/12 12:56:50;;;;;;;5.53;2.15;;;;;;;;;;5149473;27;20022;-77
2023/08/12 12:59:17;;;;;;;5.35;1.48;;;;;;;;;;5150771;27;20065;-76
2023/08/12 13:01:43;;;;;;;6.95;1.83;;;;;;;;;;5151957;27;20468;-77
2023/08/12 13:04:09;;;;;;;6.65;1.50;;;;;;;;;;5153570;27;20026;-78
2023/08/12 13:06:35;;;;;;;8.02;1.92;;;;;;;;;;5151586;27;20034;-77
2023/08/12 13:09:01;;;;;;;5.50;2.05;;;;;;;;;;5150863;27;20110;-77
2023/08/12 13:11:29;;;;;;;8.85;1.83;;;;;;;;;;5150657;27;20464;-77
2023/08/12 13:13:55;;;;;;;10.27;2.42;;;;;;;;;;5150016;27;20026;-77
2023/08/12 13:16:21;;;;;;;4.35;1.30;;;;;;;;;;5149364;27;20400;-77
2023/08/12 13:18:47;;;;;;;6.07;1.58;;;;;;;;;;5151099;27;20023;-76
2023/08/12 13:21:13;;;;;;;5.93;1.40;;;;;;;;;;5150480;27;20098;-77
2023/08/12 13:23:39;;;;;;;7.70;1.83;;;;;;;;;;5150567;27;20041;-79
2023/08/12 13:26:05;;;;;;;9.48;1.73;;;;;;;;;;5149393;27;20438;-78
2023/08/12 13:28:31;;;;;;;6.18;1.45;;;;;;;;;;5150170;27;20030;-79
2023/08/12 13:30:57;;;;;;;8.88;2.53;;;;;;;;;;5150609;27;20023;-78
2023/08/12 13:33:23;;;;;;;5.75;1.35;;;;;;;;;;5151009;27;20023;-77
2023/08/12 13:35:49;;;;;;;10.00;2.38;;;;;;;;;;5151266;27;20062;-78
2023/08/12 13:38:15;;;;;;;6.15;1.35;;;;;;;;;;5155156;27;20496;-75
2023/08/12 13:40:41;;;;;;;10.35;2.78;;;;;;;;;;5154805;27;20137;-79
2023/08/12 13:43:07;;;;;;;9.23;2.20;;;;;;;;;;5153663;27;20046;-75
2023/08/12 13:45:33;;;;;;;7.80;1.73;;;;;;;;;;5154423;27;20019;-77
2023/08/12 13:47:59;;;;;;;6.70;1.77;;;;;;;;;;5154903;27;20039;-77
2023/08/12 13:50:25;;;;;;;6.90;1.95;;;;;;;;;;5155175;27;20076;-77
2023/08/12 13:52:51;;;;;;;6.45;1.85;;;;;;;;;;5160309;27;20138;-79
2023/08/12 13:55:17;;;;;;;7.50;1.40;;;;;;;;;;5154909;27;20475;-78
2023/08/12 13:57:43;;;;;;;7.43;1.70;;;;;;;;;;5154120;27;20018;-77
2023/08/12 14:00:10;;;;;;;5.60;2.03;;;;;;;;;;5152883;27;20075;-78
2023/08/12 14:02:36;;;;;;;8.13;2.13;;;;;;;;;;5153508;27;20030;-78
2023/08/12 14:05:04;;;;;;;11.57;2.75;;;;;;;;;;5153898;27;20098;-78
2023/08/12 14:07:30;;;;;;;8.90;1.83;;;;;;;;;;5154271;27;20023;-77
2023/08/12 14:09:56;;;;;;;7.82;2.00;;;;;;;;;;5153305;27;20034;-77
2023/08/12 14:12:22;;;;;;;5.57;1.70;;;;;;;;;;5153641;27;20022;-78
2023/08/12 14:14:48;;;;;;;6.45;1.70;;;;;;;;;;5153371;27;20056;-77
2023/08/12 14:17:17;;;;;;;4.22;1.17;;;;;;;;;;5154313;27;20117;-77
2023/08/12 14:19:44;;;;;;;8.38;2.42;;;;;;;;;;5152902;27;20022;-78
2023/08/12 14:22:10;;;;;;;7.60;2.10;;;;;;;;;;5152237;27;20459;-76
2023/08/12 14:24:36;;;;;;;11.25;2.13;;;;;;;;;;5152321;27;20058;-78
2023/08/12 14:27:02;;;;;;;7.07;1.92;;;;;;;;;;5150816;27;20019;-77